sensor_id;sensor_type;location;lat;lon;timestamp;temperature;humidity
34815;DHT22;21030;53.912;15.214;2022-10-04T00:00:28;36.70;25.20
34815;DHT22;21030;53.912;15.214;2022-10-04T00:03:23;36.90;25.00
34815;DHT22;21030;53.912;15.214;2022-10-04T00:05:54;36.90;24.90
34815;DHT22;21030;53.912;15.214;2022-10-04T00:08:50;36.80;25.50
34815;DHT22;21030;53.912;15.214;2022-10-04T00:11:26;36.90;25.00
34815;DHT22;21030;53.912;15.214;2022-10-04T00:14:04;36.90;24.90
34815;DHT22;21030;53.912;15.214;2022-10-04T00:16:37;36.80;25.00
34815;DHT22;21030;53.912;15.214;2022-10-04T00:29:30;36.60;25.10
34815;DHT22;21030;53.912;15.214;2022-10-04T00:34:52;36.50;25.00
34815;DHT22;21030;53.912;15.214;2022-10-04T00:37:22;36.40;25.10
34815;DHT22;21030;53.912;15.214;2022-10-04T00:42:43;36.40;25.10
34815;DHT22;21030;53.912;15.214;2022-10-04T00:45:25;36.50;25.00
34815;DHT22;21030;53.912;15.214;2022-10-04T00:47:59;36.40;25.00
34815;DHT22;21030;53.912;15.214;2022-10-04T00:50:42;36.40;25.00
34815;DHT22;21030;53.912;15.214;2022-10-04T00:53:37;36.20;25.20
34815;DHT22;21030;53.912;15.214;2022-10-04T00:56:02;36.10;25.20
34815;DHT22;21030;53.912;15.214;2022-10-04T00:58:37;36.10;25.20
34815;DHT22;21030;53.912;15.214;2022-10-04T01:01:07;36.00;25.50
34815;DHT22;21030;53.912;15.214;2022-10-04T01:03:40;36.10;25.30
34815;DHT22;21030;53.912;15.214;2022-10-04T01:06:12;36.10;25.30
34815;DHT22;21030;53.912;15.214;2022-10-04T01:08:47;36.10;25.20
34815;DHT22;21030;53.912;15.214;2022-10-04T01:11:40;36.20;25.30
34815;DHT22;21030;53.912;15.214;2022-10-04T01:14:19;36.20;25.20
34815;DHT22;21030;53.912;15.214;2022-10-04T01:16:47;36.20;25.20
34815;DHT22;21030;53.912;15.214;2022-10-04T01:19:32;36.30;25.20
34815;DHT22;21030;53.912;15.214;2022-10-04T01:22:10;36.30;25.20
34815;DHT22;21030;53.912;15.214;2022-10-04T01:24:42;36.20;25.20
34815;DHT22;21030;53.912;15.214;2022-10-04T01:27:35;36.10;25.50
34815;DHT22;21030;53.912;15.214;2022-10-04T01:30:05;36.20;25.30
34815;DHT22;21030;53.912;15.214;2022-10-04T01:32:36;36.40;25.20
34815;DHT22;21030;53.912;15.214;2022-10-04T01:35:06;36.50;25.20
34815;DHT22;21030;53.912;15.214;2022-10-04T01:37:34;36.60;25.10
34815;DHT22;21030;53.912;15.214;2022-10-04T01:40:01;36.70;25.10
34815;DHT22;21030;53.912;15.214;2022-10-04T01:42:33;36.70;25.00
34815;DHT22;21030;53.912;15.214;2022-10-04T01:45:23;36.50;25.20
34815;DHT22;21030;53.912;15.214;2022-10-04T01:48:02;36.50;25.20
34815;DHT22;21030;53.912;15.214;2022-10-04T01:50:36;36.40;25.30
34815;DHT22;21030;53.912;15.214;2022-10-04T01:53:26;36.40;25.30
34815;DHT22;21030;53.912;15.214;2022-10-04T01:56:03;36.50;25.20
34815;DHT22;21030;53.912;15.214;2022-10-04T01:58:48;36.60;25.20
34815;DHT22;21030;53.912;15.214;2022-10-04T02:01:49;36.50;25.10
34815;DHT22;21030;53.912;15.214;2022-10-04T02:04:18;36.50;25.30
34815;DHT22;21030;53.912;15.214;2022-10-04T02:06:51;36.40;25.10
34815;DHT22;21030;53.912;15.214;2022-10-04T02:09:31;36.50;25.10
34815;DHT22;21030;53.912;15.214;2022-10-04T02:12:00;36.60;25.20
34815;DHT22;21030;53.912;15.214;2022-10-04T02:14:31;36.50;25.10
34815;DHT22;21030;53.912;15.214;2022-10-04T02:17:05;36.60;25.10
34815;DHT22;21030;53.912;15.214;2022-10-04T02:19:36;36.40;25.20
34815;DHT22;21030;53.912;15.214;2022-10-04T02:22:08;36.40;25.20
34815;DHT22;21030;53.912;15.214;2022-10-04T02:24:39;36.40;25.30
34815;DHT22;21030;53.912;15.214;2022-10-04T02:27:08;36.50;25.10
34815;DHT22;21030;53.912;15.214;2022-10-04T02:29:35;36.60;25.10
34815;DHT22;21030;53.912;15.214;2022-10-04T02:32:06;36.30;25.20
34815;DHT22;21030;53.912;15.214;2022-10-04T02:34:55;36.00;25.60
34815;DHT22;21030;53.912;15.214;2022-10-04T02:37:26;36.00;25.70
34815;DHT22;21030;53.912;15.214;2022-10-04T02:40:25;36.10;25.50
34815;DHT22;21030;53.912;15.214;2022-10-04T02:43:08;36.20;25.60
34815;DHT22;21030;53.912;15.214;2022-10-04T02:45:40;36.00;25.70
34815;DHT22;21030;53.912;15.214;2022-10-04T02:50:47;36.10;25.30
34815;DHT22;21030;53.912;15.214;2022-10-04T02:53:29;36.30;25.20
34815;DHT22;21030;53.912;15.214;2022-10-04T02:55:58;36.40;25.00
34815;DHT22;21030;53.912;15.214;2022-10-04T02:58:25;36.30;25.00
34815;DHT22;21030;53.912;15.214;2022-10-04T03:00:58;36.00;25.70
34815;DHT22;21030;53.912;15.214;2022-10-04T03:03:33;35.90;25.10
34815;DHT22;21030;53.912;15.214;2022-10-04T03:06:14;35.70;25.40
34815;DHT22;21030;53.912;15.214;2022-10-04T03:08:52;35.90;25.30
34815;DHT22;21030;53.912;15.214;2022-10-04T03:11:22;35.90;25.20
34815;DHT22;21030;53.912;15.214;2022-10-04T03:13:53;35.70;25.40
34815;DHT22;21030;53.912;15.214;2022-10-04T03:16:20;35.80;25.60
34815;DHT22;21030;53.912;15.214;2022-10-04T03:18:49;35.80;25.30
34815;DHT22;21030;53.912;15.214;2022-10-04T03:21:18;35.80;25.50
34815;DHT22;21030;53.912;15.214;2022-10-04T03:23:47;35.80;25.50
34815;DHT22;21030;53.912;15.214;2022-10-04T03:28:56;35.80;25.40
34815;DHT22;21030;53.912;15.214;2022-10-04T03:31:27;35.90;25.30
34815;DHT22;21030;53.912;15.214;2022-10-04T03:33:55;36.10;25.30
34815;DHT22;21030;53.912;15.214;2022-10-04T03:36:24;36.10;25.30
34815;DHT22;21030;53.912;15.214;2022-10-04T03:38:54;36.20;25.20
34815;DHT22;21030;53.912;15.214;2022-10-04T03:41:22;36.20;25.20
34815;DHT22;21030;53.912;15.214;2022-10-04T03:43:53;36.20;25.30
34815;DHT22;21030;53.912;15.214;2022-10-04T03:46:21;36.30;25.20
34815;DHT22;21030;53.912;15.214;2022-10-04T03:48:51;36.30;25.20
34815;DHT22;21030;53.912;15.214;2022-10-04T03:51:22;35.90;25.50
34815;DHT22;21030;53.912;15.214;2022-10-04T03:53:55;35.10;26.20
34815;DHT22;21030;53.912;15.214;2022-10-04T03:56:30;35.30;26.30
34815;DHT22;21030;53.912;15.214;2022-10-04T03:59:02;35.30;26.20
34815;DHT22;21030;53.912;15.214;2022-10-04T04:01:44;35.60;26.00
34815;DHT22;21030;53.912;15.214;2022-10-04T04:07:19;36.20;25.30
34815;DHT22;21030;53.912;15.214;2022-10-04T04:09:51;36.10;25.90
34815;DHT22;21030;53.912;15.214;2022-10-04T04:12:24;36.00;25.60
34815;DHT22;21030;53.912;15.214;2022-10-04T04:14:53;36.10;25.30
34815;DHT22;21030;53.912;15.214;2022-10-04T04:19:56;36.30;25.30
34815;DHT22;21030;53.912;15.214;2022-10-04T04:22:24;36.30;25.30
34815;DHT22;21030;53.912;15.214;2022-10-04T04:25:02;36.40;25.30
34815;DHT22;21030;53.912;15.214;2022-10-04T04:27:33;36.40;25.30
34815;DHT22;21030;53.912;15.214;2022-10-04T04:30:02;36.40;25.30
34815;DHT22;21030;53.912;15.214;2022-10-04T04:32:40;36.50;25.20
34815;DHT22;21030;53.912;15.214;2022-10-04T04:35:28;36.40;25.30
34815;DHT22;21030;53.912;15.214;2022-10-04T04:38:05;36.40;25.30
34815;DHT22;21030;53.912;15.214;2022-10-04T04:40:32;36.50;25.30
34815;DHT22;21030;53.912;15.214;2022-10-04T04:43:01;36.50;25.30
34815;DHT22;21030;53.912;15.214;2022-10-04T04:45:30;36.50;25.40
34815;DHT22;21030;53.912;15.214;2022-10-04T04:48:00;36.50;25.40
34815;DHT22;21030;53.912;15.214;2022-10-04T04:50:35;36.50;25.30
34815;DHT22;21030;53.912;15.214;2022-10-04T04:53:17;36.60;25.20
34815;DHT22;21030;53.912;15.214;2022-10-04T04:55:53;36.50;25.10
34815;DHT22;21030;53.912;15.214;2022-10-04T04:58:36;36.30;25.10
34815;DHT22;21030;53.912;15.214;2022-10-04T05:01:25;35.90;26.10
34815;DHT22;21030;53.912;15.214;2022-10-04T05:06:40;35.80;25.80
34815;DHT22;21030;53.912;15.214;2022-10-04T05:09:43;35.80;25.70
34815;DHT22;21030;53.912;15.214;2022-10-04T05:12:28;35.30;25.90
34815;DHT22;21030;53.912;15.214;2022-10-04T05:14:56;35.20;26.20
34815;DHT22;21030;53.912;15.214;2022-10-04T05:17:30;35.30;26.20
34815;DHT22;21030;53.912;15.214;2022-10-04T05:20:00;34.90;26.30
34815;DHT22;21030;53.912;15.214;2022-10-04T05:22:29;35.00;26.40
34815;DHT22;21030;53.912;15.214;2022-10-04T05:25:03;35.00;26.40
34815;DHT22;21030;53.912;15.214;2022-10-04T05:27:38;35.30;26.20
34815;DHT22;21030;53.912;15.214;2022-10-04T05:30:36;35.10;26.40
34815;DHT22;21030;53.912;15.214;2022-10-04T05:33:48;35.00;26.70
34815;DHT22;21030;53.912;15.214;2022-10-04T05:36:29;35.10;26.60
34815;DHT22;21030;53.912;15.214;2022-10-04T05:39:04;34.90;26.70
34815;DHT22;21030;53.912;15.214;2022-10-04T05:42:09;34.60;26.90
34815;DHT22;21030;53.912;15.214;2022-10-04T05:44:48;34.90;26.80
34815;DHT22;21030;53.912;15.214;2022-10-04T05:47:19;35.30;26.80
34815;DHT22;21030;53.912;15.214;2022-10-04T05:49:57;35.10;26.80
34815;DHT22;21030;53.912;15.214;2022-10-04T05:52:33;35.90;26.50
34815;DHT22;21030;53.912;15.214;2022-10-04T06:05:53;37.00;25.50
34815;DHT22;21030;53.912;15.214;2022-10-04T06:17:12;39.40;23.60
34815;DHT22;21030;53.912;15.214;2022-10-04T06:22:21;40.20;22.90
34815;DHT22;21030;53.912;15.214;2022-10-04T06:24:55;40.60;22.90
34815;DHT22;21030;53.912;15.214;2022-10-04T06:30:13;41.50;22.30
34815;DHT22;21030;53.912;15.214;2022-10-04T06:43:49;42.30;21.60
34815;DHT22;21030;53.912;15.214;2022-10-04T06:46:49;42.50;21.50
34815;DHT22;21030;53.912;15.214;2022-10-04T07:01:02;44.00;20.60
34815;DHT22;21030;53.912;15.214;2022-10-04T07:03:32;43.80;20.40
34815;DHT22;21030;53.912;15.214;2022-10-04T07:06:04;43.70;20.50
34815;DHT22;21030;53.912;15.214;2022-10-04T07:08:47;43.80;20.60
34815;DHT22;21030;53.912;15.214;2022-10-04T07:11:48;43.90;20.70
34815;DHT22;21030;53.912;15.214;2022-10-04T07:14:16;44.20;20.60
34815;DHT22;21030;53.912;15.214;2022-10-04T07:16:54;44.30;20.50
34815;DHT22;21030;53.912;15.214;2022-10-04T07:19:38;44.90;20.10
34815;DHT22;21030;53.912;15.214;2022-10-04T07:22:18;45.40;20.20
34815;DHT22;21030;53.912;15.214;2022-10-04T07:30:17;45.10;19.40
34815;DHT22;21030;53.912;15.214;2022-10-04T07:32:46;44.40;20.10
34815;DHT22;21030;53.912;15.214;2022-10-04T07:35:38;44.20;20.20
34815;DHT22;21030;53.912;15.214;2022-10-04T07:43:30;42.70;20.70
34815;DHT22;21030;53.912;15.214;2022-10-04T07:46:19;42.60;21.10
34815;DHT22;21030;53.912;15.214;2022-10-04T07:48:47;42.60;21.20
34815;DHT22;21030;53.912;15.214;2022-10-04T07:51:18;42.40;21.30
34815;DHT22;21030;53.912;15.214;2022-10-04T07:53:52;42.80;21.20
34815;DHT22;21030;53.912;15.214;2022-10-04T08:02:12;43.50;19.70
34815;DHT22;21030;53.912;15.214;2022-10-04T08:10:31;43.80;20.00
34815;DHT22;21030;53.912;15.214;2022-10-04T08:13:27;43.50;20.30
34815;DHT22;21030;53.912;15.214;2022-10-04T08:22:00;44.50;19.30
34815;DHT22;21030;53.912;15.214;2022-10-04T08:24:36;44.10;19.70
34815;DHT22;21030;53.912;15.214;2022-10-04T08:30:15;43.00;20.70
34815;DHT22;21030;53.912;15.214;2022-10-04T08:33:04;42.30;21.30
34815;DHT22;21030;53.912;15.214;2022-10-04T08:35:58;42.40;21.50
34815;DHT22;21030;53.912;15.214;2022-10-04T08:38:42;42.20;21.60
34815;DHT22;21030;53.912;15.214;2022-10-04T08:41:44;42.10;21.80
34815;DHT22;21030;53.912;15.214;2022-10-04T09:02:10;42.90;21.30
34815;DHT22;21030;53.912;15.214;2022-10-04T09:26:13;43.50;21.00
34815;DHT22;21030;53.912;15.214;2022-10-04T09:31:46;45.00;19.20
34815;DHT22;21030;53.912;15.214;2022-10-04T09:34:45;44.90;19.00
34815;DHT22;21030;53.912;15.214;2022-10-04T10:05:37;42.90;19.90
34815;DHT22;21030;53.912;15.214;2022-10-04T10:08:30;42.70;19.80
34815;DHT22;21030;53.912;15.214;2022-10-04T10:29:00;44.40;19.50
34815;DHT22;21030;53.912;15.214;2022-10-04T10:37:05;45.30;18.50
34815;DHT22;21030;53.912;15.214;2022-10-04T10:47:53;43.10;19.30
34815;DHT22;21030;53.912;15.214;2022-10-04T11:01:44;45.30;18.40
34815;DHT22;21030;53.912;15.214;2022-10-04T11:15:57;43.10;19.30
34815;DHT22;21030;53.912;15.214;2022-10-04T11:22:07;44.10;19.00
34815;DHT22;21030;53.912;15.214;2022-10-04T11:30:26;46.40;18.30
34815;DHT22;21030;53.912;15.214;2022-10-04T11:38:49;47.10;17.20
34815;DHT22;21030;53.912;15.214;2022-10-04T11:47:25;43.80;18.70
34815;DHT22;21030;53.912;15.214;2022-10-04T11:58:04;45.00;18.40
34815;DHT22;21030;53.912;15.214;2022-10-04T12:07:40;43.80;18.10
34815;DHT22;21030;53.912;15.214;2022-10-04T12:10:37;43.00;19.10
34815;DHT22;21030;53.912;15.214;2022-10-04T12:13:22;42.20;18.90
34815;DHT22;21030;53.912;15.214;2022-10-04T12:16:14;41.00;19.80
34815;DHT22;21030;53.912;15.214;2022-10-04T12:25:43;42.40;20.30
34815;DHT22;21030;53.912;15.214;2022-10-04T12:28:59;41.50;20.20
34815;DHT22;21030;53.912;15.214;2022-10-04T12:31:34;41.60;20.70
34815;DHT22;21030;53.912;15.214;2022-10-04T12:36:53;40.70;21.30
34815;DHT22;21030;53.912;15.214;2022-10-04T12:47:49;42.70;20.60
34815;DHT22;21030;53.912;15.214;2022-10-04T12:50:46;41.60;20.70
34815;DHT22;21030;53.912;15.214;2022-10-04T13:05:00;41.80;20.90
34815;DHT22;21030;53.912;15.214;2022-10-04T13:16:18;41.30;21.30
34815;DHT22;21030;53.912;15.214;2022-10-04T13:19:15;41.20;21.50
34815;DHT22;21030;53.912;15.214;2022-10-04T13:24:58;40.50;21.90
34815;DHT22;21030;53.912;15.214;2022-10-04T13:27:47;39.70;22.20
34815;DHT22;21030;53.912;15.214;2022-10-04T13:33:59;39.60;23.00
34815;DHT22;21030;53.912;15.214;2022-10-04T13:37:15;40.30;22.30
34815;DHT22;21030;53.912;15.214;2022-10-04T13:54:07;43.30;20.50
34815;DHT22;21030;53.912;15.214;2022-10-04T13:59:54;42.50;20.50
34815;DHT22;21030;53.912;15.214;2022-10-04T14:26:40;39.30;22.40
34815;DHT22;21030;53.912;15.214;2022-10-04T14:35:22;39.80;22.50
34815;DHT22;21030;53.912;15.214;2022-10-04T14:50:01;40.70;22.50
34815;DHT22;21030;53.912;15.214;2022-10-04T14:58:40;40.50;22.30
34815;DHT22;21030;53.912;15.214;2022-10-04T15:01:21;40.10;22.80
34815;DHT22;21030;53.912;15.214;2022-10-04T15:06:50;38.80;22.80
34815;DHT22;21030;53.912;15.214;2022-10-04T15:15:22;37.80;23.90
34815;DHT22;21030;53.912;15.214;2022-10-04T15:20:56;36.90;24.90
34815;DHT22;21030;53.912;15.214;2022-10-04T15:34:59;34.90;27.00
34815;DHT22;21030;53.912;15.214;2022-10-04T15:38:04;35.20;27.10
34815;DHT22;21030;53.912;15.214;2022-10-04T15:46:44;36.10;26.70
34815;DHT22;21030;53.912;15.214;2022-10-04T15:49:34;35.30;26.90
34815;DHT22;21030;53.912;15.214;2022-10-04T15:52:33;35.70;27.10
34815;DHT22;21030;53.912;15.214;2022-10-04T15:56:00;36.30;26.90
34815;DHT22;21030;53.912;15.214;2022-10-04T15:58:42;36.70;26.60
34815;DHT22;21030;53.912;15.214;2022-10-04T16:09:53;36.70;26.40
34815;DHT22;21030;53.912;15.214;2022-10-04T16:15:31;37.20;26.00
34815;DHT22;21030;53.912;15.214;2022-10-04T16:32:35;37.40;25.90
34815;DHT22;21030;53.912;15.214;2022-10-04T16:35:30;37.20;25.90
34815;DHT22;21030;53.912;15.214;2022-10-04T16:38:21;37.00;26.20
34815;DHT22;21030;53.912;15.214;2022-10-04T16:43:27;37.50;26.10
34815;DHT22;21030;53.912;15.214;2022-10-04T16:46:11;37.70;25.80
34815;DHT22;21030;53.912;15.214;2022-10-04T16:49:56;38.00;25.50
34815;DHT22;21030;53.912;15.214;2022-10-04T16:57:43;38.10;25.30
34815;DHT22;21030;53.912;15.214;2022-10-04T17:00:34;38.00;25.50
34815;DHT22;21030;53.912;15.214;2022-10-04T17:03:23;37.90;25.70
34815;DHT22;21030;53.912;15.214;2022-10-04T17:06:14;37.90;25.90
34815;DHT22;21030;53.912;15.214;2022-10-04T17:26:41;37.40;25.90
34815;DHT22;21030;53.912;15.214;2022-10-04T17:34:59;35.60;27.20
34815;DHT22;21030;53.912;15.214;2022-10-04T17:46:49;35.10;28.10
34815;DHT22;21030;53.912;15.214;2022-10-04T17:52:31;34.60;28.20
34815;DHT22;21030;53.912;15.214;2022-10-04T17:55:25;34.90;28.40
34815;DHT22;21030;53.912;15.214;2022-10-04T18:01:04;34.30;28.60
34815;DHT22;21030;53.912;15.214;2022-10-04T18:03:46;34.60;28.60
34815;DHT22;21030;53.912;15.214;2022-10-04T18:07:19;34.50;28.60
34815;DHT22;21030;53.912;15.214;2022-10-04T18:12:57;32.80;29.90
34815;DHT22;21030;53.912;15.214;2022-10-04T18:15:48;32.70;30.00
34815;DHT22;21030;53.912;15.214;2022-10-04T18:18:24;32.10;30.90
34815;DHT22;21030;53.912;15.214;2022-10-04T18:21:02;32.30;30.90
34815;DHT22;21030;53.912;15.214;2022-10-04T18:23:36;32.00;30.90
34815;DHT22;21030;53.912;15.214;2022-10-04T18:26:29;32.10;30.90
34815;DHT22;21030;53.912;15.214;2022-10-04T18:29:00;32.40;31.00
34815;DHT22;21030;53.912;15.214;2022-10-04T18:31:38;32.40;30.90
34815;DHT22;21030;53.912;15.214;2022-10-04T18:39:44;32.80;30.10
34815;DHT22;21030;53.912;15.214;2022-10-04T18:42:29;33.30;30.00
34815;DHT22;21030;53.912;15.214;2022-10-04T18:45:25;33.70;29.60
34815;DHT22;21030;53.912;15.214;2022-10-04T18:47:58;34.20;29.20
34815;DHT22;21030;53.912;15.214;2022-10-04T18:50:37;34.60;28.90
34815;DHT22;21030;53.912;15.214;2022-10-04T18:53:39;34.30;28.60
34815;DHT22;21030;53.912;15.214;2022-10-04T18:56:10;33.90;29.10
34815;DHT22;21030;53.912;15.214;2022-10-04T19:07:58;33.10;30.00
34815;DHT22;21030;53.912;15.214;2022-10-04T19:13:27;33.90;29.30
34815;DHT22;21030;53.912;15.214;2022-10-04T19:16:23;34.40;29.00
34815;DHT22;21030;53.912;15.214;2022-10-04T19:19:22;34.00;28.80
34815;DHT22;21030;53.912;15.214;2022-10-04T19:28:18;33.40;29.80
34815;DHT22;21030;53.912;15.214;2022-10-04T19:37:01;32.80;30.10
34815;DHT22;21030;53.912;15.214;2022-10-04T19:42:37;32.70;30.40
34815;DHT22;21030;53.912;15.214;2022-10-04T19:45:59;32.80;30.40
34815;DHT22;21030;53.912;15.214;2022-10-04T19:48:48;33.20;30.00
34815;DHT22;21030;53.912;15.214;2022-10-04T19:51:53;33.30;29.80
34815;DHT22;21030;53.912;15.214;2022-10-04T19:54:34;33.50;29.80
34815;DHT22;21030;53.912;15.214;2022-10-04T19:57:13;34.00;29.20
34815;DHT22;21030;53.912;15.214;2022-10-04T19:59:46;34.30;28.80
34815;DHT22;21030;53.912;15.214;2022-10-04T20:02:15;34.40;28.60
34815;DHT22;21030;53.912;15.214;2022-10-04T20:04:45;34.50;28.60
34815;DHT22;21030;53.912;15.214;2022-10-04T20:07:24;34.20;28.70
34815;DHT22;21030;53.912;15.214;2022-10-04T20:13:22;33.90;29.20
34815;DHT22;21030;53.912;15.214;2022-10-04T20:16:03;34.40;28.80
34815;DHT22;21030;53.912;15.214;2022-10-04T20:21:23;34.50;28.40
34815;DHT22;21030;53.912;15.214;2022-10-04T20:23:57;34.50;28.50
34815;DHT22;21030;53.912;15.214;2022-10-04T20:26:42;34.20;28.70
34815;DHT22;21030;53.912;15.214;2022-10-04T20:32:09;33.10;29.40
34815;DHT22;21030;53.912;15.214;2022-10-04T20:37:07;32.20;30.60
34815;DHT22;21030;53.912;15.214;2022-10-04T20:42:33;33.00;29.80
34815;DHT22;21030;53.912;15.214;2022-10-04T20:45:21;33.50;29.60
34815;DHT22;21030;53.912;15.214;2022-10-04T20:47:55;34.10;28.90
34815;DHT22;21030;53.912;15.214;2022-10-04T20:50:32;34.30;28.50
34815;DHT22;21030;53.912;15.214;2022-10-04T20:53:14;34.60;28.40
34815;DHT22;21030;53.912;15.214;2022-10-04T20:55:50;34.60;28.30
34815;DHT22;21030;53.912;15.214;2022-10-04T20:58:31;34.90;28.20
34815;DHT22;21030;53.912;15.214;2022-10-04T21:01:18;35.00;28.00
34815;DHT22;21030;53.912;15.214;2022-10-04T21:07:10;34.40;27.90
34815;DHT22;21030;53.912;15.214;2022-10-04T21:09:41;34.00;28.80
34815;DHT22;21030;53.912;15.214;2022-10-04T21:12:27;33.70;28.90
34815;DHT22;21030;53.912;15.214;2022-10-04T21:19:58;33.80;28.60
34815;DHT22;21030;53.912;15.214;2022-10-04T21:24:54;33.30;29.10
34815;DHT22;21030;53.912;15.214;2022-10-04T21:27:31;32.80;29.50
34815;DHT22;21030;53.912;15.214;2022-10-04T21:30:00;33.00;29.50
34815;DHT22;21030;53.912;15.214;2022-10-04T21:32:33;33.00;29.60
34815;DHT22;21030;53.912;15.214;2022-10-04T21:35:01;33.00;29.70
34815;DHT22;21030;53.912;15.214;2022-10-04T21:37:29;32.50;29.80
34815;DHT22;21030;53.912;15.214;2022-10-04T21:39:56;32.40;30.30
34815;DHT22;21030;53.912;15.214;2022-10-04T21:42:24;32.50;30.50
34815;DHT22;21030;53.912;15.214;2022-10-04T21:44:57;32.90;30.00
34815;DHT22;21030;53.912;15.214;2022-10-04T21:47:24;33.50;29.50
34815;DHT22;21030;53.912;15.214;2022-10-04T21:49:51;33.40;29.50
34815;DHT22;21030;53.912;15.214;2022-10-04T21:52:19;32.90;29.60
34815;DHT22;21030;53.912;15.214;2022-10-04T21:54:46;32.90;29.90
34815;DHT22;21030;53.912;15.214;2022-10-04T21:57:13;32.90;29.80
34815;DHT22;21030;53.912;15.214;2022-10-04T21:59:40;32.80;29.80
34815;DHT22;21030;53.912;15.214;2022-10-04T22:02:07;33.10;29.60
34815;DHT22;21030;53.912;15.214;2022-10-04T22:04:35;33.10;29.60
34815;DHT22;21030;53.912;15.214;2022-10-04T22:07:03;33.20;29.50
34815;DHT22;21030;53.912;15.214;2022-10-04T22:09:31;33.20;29.50
34815;DHT22;21030;53.912;15.214;2022-10-04T22:12:00;33.20;29.50
34815;DHT22;21030;53.912;15.214;2022-10-04T22:14:27;33.20;29.40
34815;DHT22;21030;53.912;15.214;2022-10-04T22:16:54;33.00;29.40
34815;DHT22;21030;53.912;15.214;2022-10-04T22:19:21;32.90;29.60
34815;DHT22;21030;53.912;15.214;2022-10-04T22:21:48;32.90;30.00
34815;DHT22;21030;53.912;15.214;2022-10-04T22:24:18;33.50;29.50
34815;DHT22;21030;53.912;15.214;2022-10-04T22:26:45;33.50;29.40
34815;DHT22;21030;53.912;15.214;2022-10-04T22:29:14;33.70;29.30
34815;DHT22;21030;53.912;15.214;2022-10-04T22:31:47;33.50;29.40
34815;DHT22;21030;53.912;15.214;2022-10-04T22:34:16;33.60;29.20
34815;DHT22;21030;53.912;15.214;2022-10-04T22:36:48;33.50;29.00
34815;DHT22;21030;53.912;15.214;2022-10-04T22:39:16;33.40;29.40
34815;DHT22;21030;53.912;15.214;2022-10-04T22:41:46;33.50;29.40
34815;DHT22;21030;53.912;15.214;2022-10-04T22:44:17;33.80;29.00
34815;DHT22;21030;53.912;15.214;2022-10-04T22:46:45;34.00;28.80
34815;DHT22;21030;53.912;15.214;2022-10-04T22:49:20;33.60;29.20
34815;DHT22;21030;53.912;15.214;2022-10-04T22:51:49;33.20;29.20
34815;DHT22;21030;53.912;15.214;2022-10-04T22:54:35;33.50;29.40
34815;DHT22;21030;53.912;15.214;2022-10-04T22:57:03;33.80;29.20
34815;DHT22;21030;53.912;15.214;2022-10-04T22:59:37;33.80;29.00
34815;DHT22;21030;53.912;15.214;2022-10-04T23:02:10;33.90;28.80
34815;DHT22;21030;53.912;15.214;2022-10-04T23:04:39;33.70;28.90
34815;DHT22;21030;53.912;15.214;2022-10-04T23:07:06;33.50;29.00
34815;DHT22;21030;53.912;15.214;2022-10-04T23:09:34;33.50;29.30
34815;DHT22;21030;53.912;15.214;2022-10-04T23:12:06;32.90;29.40
34815;DHT22;21030;53.912;15.214;2022-10-04T23:14:35;32.90;29.70
34815;DHT22;21030;53.912;15.214;2022-10-04T23:17:24;33.10;29.70
34815;DHT22;21030;53.912;15.214;2022-10-04T23:20:00;33.40;29.20
34815;DHT22;21030;53.912;15.214;2022-10-04T23:22:29;33.40;29.40
34815;DHT22;21030;53.912;15.214;2022-10-04T23:24:56;33.10;29.40
34815;DHT22;21030;53.912;15.214;2022-10-04T23:27:23;32.20;29.80
34815;DHT22;21030;53.912;15.214;2022-10-04T23:30:02;32.00;30.40
34815;DHT22;21030;53.912;15.214;2022-10-04T23:32:30;32.20;30.30
34815;DHT22;21030;53.912;15.214;2022-10-04T23:34:59;31.90;30.60
34815;DHT22;21030;53.912;15.214;2022-10-04T23:37:30;31.30;31.30
34815;DHT22;21030;53.912;15.214;2022-10-04T23:39:59;31.30;31.60
34815;DHT22;21030;53.912;15.214;2022-10-04T23:42:28;31.60;31.40
34815;DHT22;21030;53.912;15.214;2022-10-04T23:44:58;32.50;30.70
34815;DHT22;21030;53.912;15.214;2022-10-04T23:47:36;32.80;29.80
34815;DHT22;21030;53.912;15.214;2022-10-04T23:50:33;33.40;29.40
34815;DHT22;21030;53.912;15.214;2022-10-04T23:53:04;33.40;29.20
34815;DHT22;21030;53.912;15.214;2022-10-04T23:55:40;33.50;29.20
34815;DHT22;21030;53.912;15.214;2022-10-04T23:58:14;33.80;29.00
